Time;durP1;ratioP1;P1;durP2;ratioP2;P2;SDS_P1;SDS_P2;PMS_P1;PMS_P2;Temp;Humidity;BMP_temperature;BMP_pressure;BME280_temperature;BME280_humidity;BME280_pressure;Samples;Min_cycle;Max_cycle;Signal;HPM_P1;HPM_P2
2023/09/24 00:01:04;;;;;;;5.55;2.55;;;563.50;2432.00;;;;;;5076313;28;20025;-74
2023/09/24 00:03:31;;;;;;;5.68;2.65;;;563.50;2432.00;;;;;;5076528;28;20096;-74
2023/09/24 00:05:59;;;;;;;7.70;2.80;;;563.50;2432.00;;;;;;5069051;28;20056;-74
2023/09/24 00:08:24;;;;;;;6.05;2.63;;;563.50;2432.00;;;;;;5064092;28;20029;-73
2023/09/24 00:10:52;;;;;;;8.75;2.88;;;563.60;2432.00;;;;;;5085794;28;20503;-74
2023/09/24 00:13:22;;;;;;;11.77;2.72;;;563.50;2432.00;;;;;;5074120;28;20079;-73
2023/09/24 00:15:52;;;;;;;7.72;2.85;;;563.60;2432.00;;;;;;5071798;28;20016;-72
2023/09/24 00:18:19;;;;;;;4.18;2.25;;;563.60;2432.00;;;;;;5069201;28;20502;-73
2023/09/24 00:20:46;;;;;;;5.47;2.42;;;563.60;2432.00;;;;;;5071894;28;20629;-73
2023/09/24 00:23:11;;;;;;;6.30;2.65;;;563.50;2432.00;;;;;;5072275;28;20021;-73
2023/09/24 00:25:37;;;;;;;7.00;2.40;;;563.60;2432.00;;;;;;5064674;28;20363;-73
2023/09/24 00:28:04;;;;;;;7.80;2.42;;;563.60;2432.00;;;;;;5075517;28;20025;-74
2023/09/24 00:30:33;;;;;;;6.53;2.10;;;563.50;2432.00;;;;;;5075452;28;20017;-74
2023/09/24 00:32:59;;;;;;;24.02;2.92;;;563.50;2432.00;;;;;;5075499;28;20039;-75
2023/09/24 00:35:25;;;;;;;8.52;2.03;;;563.40;2432.00;;;;;;5075594;28;20412;-74
2023/09/24 00:37:51;;;;;;;5.65;2.83;;;563.40;2432.00;;;;;;5075491;28;20027;-74
2023/09/24 00:40:18;;;;;;;9.80;3.17;;;563.30;2432.00;;;;;;5073940;28;20056;-74
2023/09/24 00:42:44;;;;;;;6.97;2.97;;;563.30;2432.00;;;;;;5075130;28;20489;-74
2023/09/24 00:45:11;;;;;;;10.20;4.07;;;563.30;2432.00;;;;;;5075270;28;20020;-75
2023/09/24 00:47:39;;;;;;;8.38;3.25;;;563.20;2432.00;;;;;;5075117;28;20017;-74
2023/09/24 00:50:10;;;;;;;7.38;3.17;;;563.30;2432.00;;;;;;5075189;28;20029;-73
2023/09/24 00:52:36;;;;;;;6.72;2.97;;;563.30;2432.00;;;;;;5073288;28;20098;-74
2023/09/24 00:55:08;;;;;;;8.88;3.13;;;538.50;2406.40;;;;;;5065504;28;20021;-73
2023/09/24 00:57:35;;;;;;;5.45;3.40;;;563.50;2432.00;;;;;;5075213;28;20051;-75
2023/09/24 01:00:15;;;;;;;5.65;2.80;;;563.30;2432.00;;;;;;5074895;28;20538;-74
2023/09/24 01:02:44;;;;;;;11.00;3.03;;;563.20;2432.00;;;;;;5074932;28;20048;-74
2023/09/24 01:05:10;;;;;;;8.45;4.30;;;563.30;2432.00;;;;;;5075011;28;20501;-74
2023/09/24 01:07:41;;;;;;;10.32;3.75;;;563.30;2432.00;;;;;;5074946;28;20105;-74
2023/09/24 01:10:08;;;;;;;8.48;3.28;;;563.30;2432.00;;;;;;5074805;28;20016;-75
2023/09/24 01:12:35;;;;;;;5.90;2.78;;;563.30;2432.00;;;;;;5074635;28;20033;-75
2023/09/24 01:15:01;;;;;;;8.20;3.45;;;563.30;2432.00;;;;;;5074558;28;20103;-74
2023/09/24 01:17:27;;;;;;;5.90;2.75;;;563.30;2432.00;;;;;;5074436;28;20123;-75
2023/09/24 01:19:54;;;;;;;5.93;2.95;;;563.20;2432.00;;;;;;5074653;28;20059;-75
2023/09/24 01:22:20;;;;;;;6.28;2.95;;;538.50;2406.40;;;;;;5074545;28;20613;-74
2023/09/24 01:24:46;;;;;;;9.15;3.55;;;538.40;2406.40;;;;;;5074616;28;20055;-75
2023/09/24 01:27:12;;;;;;;9.13;3.92;;;538.30;2406.40;;;;;;5074670;28;20421;-74
2023/09/24 01:29:38;;;;;;;5.90;3.20;;;538.30;2406.40;;;;;;5073207;28;20492;-75
2023/09/24 01:32:06;;;;;;;10.60;4.28;;;538.30;2406.40;;;;;;5072798;28;20041;-73
2023/09/24 01:34:32;;;;;;;5.82;2.90;;;538.50;2406.40;;;;;;5073809;28;20048;-74
2023/09/24 01:36:58;;;;;;;8.68;3.25;;;538.50;2406.40;;;;;;5074316;28;20033;-74
2023/09/24 01:39:27;;;;;;;10.45;3.22;;;538.50;2406.40;;;;;;5074059;28;20048;-75
2023/09/24 01:41:53;;;;;;;13.43;3.85;;;563.20;2432.00;;;;;;5074033;28;20500;-75
2023/09/24 01:44:21;;;;;;;4.88;3.10;;;538.50;2406.40;;;;;;5074324;28;20024;-75
2023/09/24 01:46:48;;;;;;;7.55;4.15;;;538.30;2406.40;;;;;;5073796;28;20020;-74
2023/09/24 01:49:16;;;;;;;9.95;4.55;;;537.90;2406.40;;;;;;5074192;28;20016;-74
2023/09/24 01:51:44;;;;;;;8.55;4.38;;;538.10;2406.40;;;;;;5073919;28;20020;-74
2023/09/24 01:54:10;;;;;;;8.20;4.82;;;537.90;2406.40;;;;;;5074018;28;20091;-74
2023/09/24 01:56:36;;;;;;;7.82;4.57;;;538.00;2406.40;;;;;;5073760;28;20074;-75
2023/09/24 01:59:03;;;;;;;8.63;4.53;;;537.80;2406.40;;;;;;5073919;28;20423;-75
2023/09/24 02:01:29;;;;;;;10.98;5.25;;;537.90;2406.40;;;;;;5073544;28;20862;-76
2023/09/24 02:03:59;;;;;;;9.55;5.32;;;538.00;2406.40;;;;;;5073875;28;20107;-75
2023/09/24 02:06:25;;;;;;;8.77;5.22;;;538.00;2406.40;;;;;;5073601;28;20378;-74
2023/09/24 02:08:51;;;;;;;10.32;5.45;;;538.00;2406.40;;;;;;5073554;28;20104;-76
2023/09/24 02:11:18;;;;;;;12.98;6.18;;;538.00;2406.40;;;;;;5073746;28;20020;-75
2023/09/24 02:13:43;;;;;;;10.80;6.40;;;538.00;2406.40;;;;;;5073580;28;20033;-73
2023/09/24 02:16:09;;;;;;;14.10;5.95;;;537.90;2406.40;;;;;;5073449;28;20016;-74
2023/09/24 02:18:36;;;;;;;12.30;5.55;;;538.00;2406.40;;;;;;5073510;28;20024;-75
2023/09/24 02:21:01;;;;;;;10.15;5.78;;;538.00;2406.40;;;;;;5060412;28;20021;-74
2023/09/24 02:23:27;;;;;;;8.88;5.07;;;537.80;2406.40;;;;;;5073314;28;20050;-73
2023/09/24 02:25:55;;;;;;;11.23;4.78;;;537.70;2406.40;;;;;;5073609;28;20101;-74
2023/09/24 02:28:20;;;;;;;10.32;5.45;;;537.80;2406.40;;;;;;5073301;28;20037;-74
2023/09/24 02:30:47;;;;;;;10.05;5.03;;;537.90;2406.40;;;;;;5073120;28;20496;-74
2023/09/24 02:33:13;;;;;;;8.52;4.30;;;538.00;2406.40;;;;;;5072910;28;20068;-73
2023/09/24 02:35:39;;;;;;;8.88;3.42;;;538.00;2406.40;;;;;;5073191;28;20044;-75
2023/09/24 02:38:05;;;;;;;11.10;4.30;;;538.00;2406.40;;;;;;5073208;28;20056;-75
2023/09/24 02:40:31;;;;;;;8.43;3.25;;;538.00;2406.40;;;;;;5072802;28;20501;-75
2023/09/24 02:43:03;;;;;;;9.82;3.28;;;538.10;2406.40;;;;;;5073296;28;20063;-75
2023/09/24 02:45:30;;;;;;;9.23;3.45;;;537.90;2406.40;;;;;;5072826;28;20025;-76
2023/09/24 02:47:56;;;;;;;6.68;3.25;;;537.80;2406.40;;;;;;5071157;28;20384;-74
2023/09/24 02:50:27;;;;;;;8.98;3.63;;;537.80;2406.40;;;;;;5073281;28;20473;-76
2023/09/24 02:52:58;;;;;;;8.52;3.75;;;538.00;2406.40;;;;;;5073039;28;20032;-74
2023/09/24 02:55:25;;;;;;;9.27;3.00;;;537.80;2406.40;;;;;;5071847;28;20159;-75
2023/09/24 02:57:51;;;;;;;7.13;2.95;;;537.80;2406.40;;;;;;5072833;28;20060;-75
2023/09/24 03:00:19;;;;;;;6.97;3.08;;;537.90;2406.40;;;;;;5073075;28;20114;-74
2023/09/24 03:02:48;;;;;;;9.82;3.53;;;538.00;2406.40;;;;;;5072797;28;20389;-74
2023/09/24 03:05:20;;;;;;;9.07;2.80;;;538.00;2406.40;;;;;;5072981;28;20044;-74
2023/09/24 03:07:47;;;;;;;7.50;3.05;;;537.90;2406.40;;;;;;5072722;28;20021;-75
2023/09/24 03:10:13;;;;;;;9.52;3.22;;;537.70;2406.40;;;;;;5072858;28;20508;-75
2023/09/24 03:12:43;;;;;;;7.15;3.10;;;537.70;2406.40;;;;;;5072546;28;20098;-74
2023/09/24 03:15:12;;;;;;;5.35;2.88;;;537.60;2406.40;;;;;;5073157;28;20024;-73
2023/09/24 03:17:39;;;;;;;12.50;3.85;;;537.60;2406.40;;;;;;5072747;28;20032;-75
2023/09/24 03:20:15;;;;;;;5.95;3.30;;;512.90;2380.80;;;;;;5072981;28;20020;-74
2023/09/24 03:23:08;;;;;;;9.20;3.22;;;512.90;2380.80;;;;;;5060206;28;20107;-73
2023/09/24 03:25:34;;;;;;;6.85;2.97;;;512.90;2380.80;;;;;;5072810;28;20025;-75
2023/09/24 03:28:01;;;;;;;6.47;2.67;;;512.90;2380.80;;;;;;5072966;28;20086;-74
2023/09/24 03:30:27;;;;;;;7.82;2.92;;;512.80;2380.80;;;;;;5072553;28;20454;-74
2023/09/24 03:32:53;;;;;;;6.38;2.90;;;512.70;2380.80;;;;;;5072432;28;20076;-74
2023/09/24 03:35:23;;;;;;;4.97;2.28;;;512.60;2380.80;;;;;;5072602;28;20052;-74
2023/09/24 03:37:51;;;;;;;5.00;2.13;;;512.60;2380.80;;;;;;5073817;28;20024;-74
2023/09/24 03:40:18;;;;;;;4.40;2.05;;;512.60;2380.80;;;;;;5074046;28;20088;-73
2023/09/24 03:42:45;;;;;;;3.30;2.15;;;512.50;2380.80;;;;;;5073419;28;20040;-75
2023/09/24 03:45:12;;;;;;;3.72;2.30;;;512.50;2380.80;;;;;;5072645;28;20036;-74
2023/09/24 03:47:41;;;;;;;6.43;2.25;;;512.60;2380.80;;;;;;5072469;28;20032;-73
2023/09/24 03:50:16;;;;;;;4.78;2.25;;;512.70;2380.80;;;;;;5072414;28;20027;-73
2023/09/24 03:52:47;;;;;;;9.37;2.70;;;512.80;2380.80;;;;;;5072167;28;20082;-74
2023/09/24 03:55:15;;;;;;;5.05;2.20;;;512.70;2380.80;;;;;;5072428;28;20772;-74
2023/09/24 03:57:42;;;;;;;4.57;1.98;;;512.60;2380.80;;;;;;5073302;28;20074;-74
2023/09/24 04:00:15;;;;;;;10.40;2.75;;;512.90;2380.80;;;;;;5076258;28;20062;-73
2023/09/24 04:02:43;;;;;;;3.80;2.10;;;512.90;2380.80;;;;;;5075983;28;20444;-74
2023/09/24 04:05:13;;;;;;;3.35;1.85;;;512.90;2380.80;;;;;;5076038;28;20378;-74
2023/09/24 04:07:39;;;;;;;4.70;2.10;;;512.80;2380.80;;;;;;5076048;28;20490;-74
2023/09/24 04:10:06;;;;;;;5.35;2.25;;;512.70;2380.80;;;;;;5075940;28;20027;-74
2023/09/24 04:12:35;;;;;;;6.50;2.67;;;512.60;2380.80;;;;;;5075861;28;20481;-74
2023/09/24 04:15:04;;;;;;;3.85;1.95;;;512.40;2380.80;;;;;;5075831;28;20461;-74
2023/09/24 04:17:31;;;;;;;5.85;2.17;;;512.50;2380.80;;;;;;5071174;28;20075;-74
2023/09/24 04:19:58;;;;;;;4.50;2.08;;;512.40;2380.80;;;;;;5064431;28;20021;-73
2023/09/24 04:22:23;;;;;;;6.80;2.35;;;512.40;2380.80;;;;;;5079586;28;20020;-75
2023/09/24 04:24:54;;;;;;;4.25;2.35;;;512.40;2380.80;;;;;;5076100;28;20025;-73
2023/09/24 04:27:23;;;;;;;4.13;2.03;;;512.40;2380.80;;;;;;5076441;28;20039;-74
2023/09/24 04:29:49;;;;;;;6.20;2.40;;;512.50;2380.80;;;;;;5076420;28;20040;-73
2023/09/24 04:32:18;;;;;;;8.45;2.22;;;512.60;2380.80;;;;;;5072854;28;20036;-74
2023/09/24 04:34:47;;;;;;;3.40;1.67;;;512.60;2380.80;;;;;;5079792;28;20024;-73
2023/09/24 04:37:15;;;;;;;6.32;2.20;;;512.60;2380.80;;;;;;5087080;28;20099;-74
2023/09/24 04:39:41;;;;;;;4.15;2.17;;;512.60;2380.80;;;;;;5070329;28;20404;-74
2023/09/24 04:42:07;;;;;;;5.10;2.22;;;512.50;2380.80;;;;;;5070620;28;20024;-74
2023/09/24 04:44:33;;;;;;;3.80;2.45;;;512.50;2380.80;;;;;;5075867;28;20024;-73
2023/09/24 04:46:58;;;;;;;5.80;1.90;;;512.50;2380.80;;;;;;5085699;28;20025;-73
2023/09/24 04:49:24;;;;;;;5.68;2.08;;;512.60;2380.80;;;;;;5075924;28;20021;-74
2023/09/24 04:51:50;;;;;;;5.07;2.30;;;512.60;2380.80;;;;;;5080173;28;20028;-74
2023/09/24 04:54:16;;;;;;;3.90;2.22;;;512.60;2380.80;;;;;;5072029;28;20020;-73
2023/09/24 04:56:42;;;;;;;5.75;2.17;;;512.80;2380.80;;;;;;5076176;28;20029;-73
2023/09/24 04:59:07;;;;;;;4.40;1.92;;;512.70;2380.80;;;;;;5075268;28;20117;-74
2023/09/24 05:01:33;;;;;;;6.03;2.20;;;512.80;2380.80;;;;;;5072997;28;20032;-73
2023/09/24 05:03:59;;;;;;;2.70;1.70;;;512.80;2380.80;;;;;;5071372;28;20460;-73
2023/09/24 05:06:25;;;;;;;4.18;2.00;;;512.90;2380.80;;;;;;5060735;28;20029;-74
2023/09/24 05:08:51;;;;;;;5.80;1.80;;;512.80;2380.80;;;;;;5087607;28;20024;-75
2023/09/24 05:11:17;;;;;;;4.40;2.40;;;512.90;2380.80;;;;;;5076405;28;20474;-72
2023/09/24 05:13:44;;;;;;;5.03;2.20;;;512.90;2380.80;;;;;;5071656;28;20043;-74
2023/09/24 05:16:09;;;;;;;3.55;1.92;;;512.90;2380.80;;;;;;5086479;28;20065;-74
2023/09/24 05:18:35;;;;;;;5.32;2.20;;;537.60;2406.40;;;;;;5069663;28;20032;-73
2023/09/24 05:21:03;;;;;;;9.55;2.80;;;537.60;2406.40;;;;;;5064968;28;20078;-75
2023/09/24 05:23:29;;;;;;;5.50;1.98;;;537.70;2406.40;;;;;;5074088;28;20021;-74
2023/09/24 05:25:55;;;;;;;5.07;2.03;;;537.70;2406.40;;;;;;5068945;28;20025;-75
2023/09/24 05:28:20;;;;;;;4.15;2.30;;;537.70;2406.40;;;;;;5071821;28;20052;-75
2023/09/24 05:30:53;;;;;;;6.25;2.15;;;537.70;2406.40;;;;;;5060499;28;20025;-75
2023/09/24 05:33:19;;;;;;;6.22;2.60;;;537.80;2406.40;;;;;;5079954;28;20029;-74
2023/09/24 05:35:52;;;;;;;6.70;2.38;;;537.80;2406.40;;;;;;5073895;28;20040;-75
2023/09/24 05:38:18;;;;;;;4.50;2.22;;;537.80;2406.40;;;;;;5066166;28;20054;-75
2023/09/24 05:40:45;;;;;;;4.63;2.25;;;537.80;2406.40;;;;;;5082648;28;20132;-75
2023/09/24 05:43:10;;;;;;;4.25;2.13;;;538.00;2406.40;;;;;;5076601;28;20052;-74
2023/09/24 05:45:43;;;;;;;5.50;2.20;;;537.90;2406.40;;;;;;5067638;28;20125;-73
2023/09/24 05:48:09;;;;;;;9.05;2.40;;;537.90;2406.40;;;;;;5071661;28;20043;-73
2023/09/24 05:50:34;;;;;;;5.43;2.45;;;537.80;2406.40;;;;;;5067766;28;20484;-74
2023/09/24 05:53:00;;;;;;;3.50;1.92;;;537.80;2406.40;;;;;;5076339;28;20036;-75
2023/09/24 05:55:26;;;;;;;5.35;2.80;;;537.70;2406.40;;;;;;5076565;28;20021;-75
2023/09/24 05:57:51;;;;;;;6.85;2.83;;;537.60;2406.40;;;;;;5079149;28;20033;-74
2023/09/24 06:00:17;;;;;;;5.38;2.85;;;537.60;2406.40;;;;;;5072634;28;20017;-74
2023/09/24 06:02:43;;;;;;;5.22;2.50;;;537.80;2406.40;;;;;;5062504;28;20054;-75
2023/09/24 06:05:09;;;;;;;4.85;2.70;;;537.90;2406.40;;;;;;5069201;28;20047;-74
2023/09/24 06:07:35;;;;;;;6.05;3.10;;;537.90;2406.40;;;;;;5072801;28;20435;-74
2023/09/24 06:10:04;;;;;;;7.20;3.30;;;537.80;2406.40;;;;;;5084233;28;20023;-75
2023/09/24 06:12:31;;;;;;;9.50;6.32;;;537.80;2406.40;;;;;;5069791;28;20041;-74
2023/09/24 06:14:57;;;;;;;8.15;3.97;;;537.70;2406.40;;;;;;5068503;28;20576;-74
2023/09/24 06:17:23;;;;;;;7.28;3.20;;;537.60;2406.40;;;;;;5070455;28;20124;-75
2023/09/24 06:19:49;;;;;;;7.35;3.40;;;537.80;2406.40;;;;;;5089041;28;20021;-75
2023/09/24 06:22:14;;;;;;;9.30;5.85;;;537.90;2406.40;;;;;;5059270;28;20028;-75
2023/09/24 06:24:40;;;;;;;10.15;4.70;;;538.00;2406.40;;;;;;5064975;28;20087;-74
2023/09/24 06:27:06;;;;;;;6.43;3.72;;;538.00;2406.40;;;;;;5082426;28;20032;-77
2023/09/24 06:29:38;;;;;;;5.65;3.53;;;537.70;2406.40;;;;;;5067586;28;20029;-76
2023/09/24 06:32:03;;;;;;;7.00;3.75;;;537.80;2406.40;;;;;;5071449;28;20534;-76
2023/09/24 06:34:31;;;;;;;7.68;3.40;;;537.90;2406.40;;;;;;5069248;28;20037;-76
2023/09/24 06:36:57;;;;;;;11.00;3.70;;;538.00;2406.40;;;;;;5079861;28;20024;-76
2023/09/24 06:39:25;;;;;;;6.43;3.50;;;538.00;2406.40;;;;;;5076826;28;20041;-76
2023/09/24 06:41:51;;;;;;;7.32;3.22;;;538.00;2406.40;;;;;;5078950;28;20475;-77
2023/09/24 06:44:22;;;;;;;7.18;3.45;;;538.00;2406.40;;;;;;5065123;28;20091;-76
2023/09/24 06:46:48;;;;;;;8.25;4.00;;;537.90;2406.40;;;;;;5083868;28;20410;-77
2023/09/24 06:49:14;;;;;;;8.15;3.70;;;538.00;2406.40;;;;;;5055216;28;20025;-76
2023/09/24 06:51:40;;;;;;;8.18;4.35;;;538.20;2406.40;;;;;;5070590;28;20097;-77
2023/09/24 06:54:06;;;;;;;11.27;5.78;;;538.20;2406.40;;;;;;5072135;28;20044;-75
2023/09/24 06:56:31;;;;;;;11.90;6.78;;;538.20;2406.40;;;;;;5063375;28;20147;-75
2023/09/24 06:58:57;;;;;;;9.30;5.78;;;538.30;2406.40;;;;;;5061919;28;20135;-74
2023/09/24 07:01:23;;;;;;;11.48;6.22;;;538.30;2406.40;;;;;;5067156;28;20451;-75
2023/09/24 07:03:49;;;;;;;14.05;6.78;;;538.40;2406.40;;;;;;5065402;28;20042;-75
2023/09/24 07:06:16;;;;;;;11.65;6.30;;;538.40;2406.40;;;;;;5069523;28;20355;-74
2023/09/24 07:08:41;;;;;;;5.68;3.50;;;538.50;2406.40;;;;;;5064164;28;20024;-75
2023/09/24 07:11:28;;;;;;;4.38;2.17;;;538.50;2406.40;;;;;;5078077;28;20070;-74
2023/09/24 07:13:55;;;;;;;7.35;1.88;;;538.50;2406.40;;;;;;5063868;28;20033;-74
2023/09/24 07:16:25;;;;;;;3.90;1.80;;;538.50;2406.40;;;;;;5072670;28;20378;-74
2023/09/24 07:18:51;;;;;;;3.33;1.75;;;538.50;2406.40;;;;;;5063008;28;20029;-73
2023/09/24 07:21:22;;;;;;;7.60;2.70;;;563.20;2432.00;;;;;;5067729;28;20474;-75
2023/09/24 07:23:50;;;;;;;6.82;3.13;;;563.70;2432.00;;;;;;5062592;28;20107;-75
2023/09/24 07:26:16;;;;;;;5.53;3.25;;;563.90;2432.00;;;;;;5062372;28;20021;-74
2023/09/24 07:28:43;;;;;;;8.38;5.93;;;563.80;2432.00;;;;;;5069533;28;20492;-76
2023/09/24 07:31:22;;;;;;;7.63;4.60;;;589.00;2432.00;;;;;;5070165;28;20024;-75
2023/09/24 07:33:53;;;;;;;8.23;5.38;;;589.50;2432.00;;;;;;5071306;28;20122;-79
2023/09/24 07:36:20;;;;;;;9.43;5.30;;;589.60;2432.00;;;;;;5076909;28;20016;-77
2023/09/24 07:38:46;;;;;;;10.20;6.13;;;588.90;2432.00;;;;;;5089820;28;20542;-79
2023/09/24 07:41:12;;;;;;;8.27;6.47;;;588.80;2432.00;;;;;;5080278;28;20041;-77
2023/09/24 07:43:39;;;;;;;9.93;7.22;;;563.90;2432.00;;;;;;5090135;28;20470;-77
2023/09/24 07:46:05;;;;;;;13.38;11.45;;;564.10;2432.00;;;;;;5057812;28;20032;-74
2023/09/24 07:48:31;;;;;;;15.38;11.73;;;564.10;2432.00;;;;;;5079757;28;20024;-79
2023/09/24 07:50:57;;;;;;;14.90;11.85;;;588.80;2432.00;;;;;;5072051;28;20025;-77
2023/09/24 07:53:24;;;;;;;12.80;10.18;;;564.10;2432.00;;;;;;5087205;28;20058;-78
2023/09/24 07:55:56;;;;;;;12.95;10.82;;;589.60;2432.00;;;;;;5085489;28;20021;-78
2023/09/24 07:58:23;;;;;;;16.33;14.15;;;614.80;2432.00;;;;;;5076860;28;20498;-78
2023/09/24 08:00:49;;;;;;;16.58;12.85;;;615.00;2432.00;;;;;;5075965;28;20175;-80
2023/09/24 08:03:15;;;;;;;21.70;17.67;;;615.30;2432.00;;;;;;5078640;28;20122;-79
2023/09/24 08:05:41;;;;;;;18.67;16.48;;;615.10;2432.00;;;;;;5083468;28;20063;-79
2023/09/24 08:08:06;;;;;;;12.82;10.98;;;640.40;2432.00;;;;;;5062600;28;20470;-77
2023/09/24 08:10:33;;;;;;;13.30;10.93;;;;;;;;;;5079383;28;20024;-79
2023/09/24 08:12:58;;;;;;;14.40;11.65;;;640.20;2432.00;;;;;;5066976;28;20032;-79
2023/09/24 08:15:24;;;;;;;18.95;14.25;;;640.40;2432.00;;;;;;5070770;28;20028;-77
2023/09/24 08:17:50;;;;;;;22.77;17.55;;;615.30;2432.00;;;;;;5077479;28;20103;-77
2023/09/24 08:20:15;;;;;;;18.40;16.23;;;615.00;2432.00;;;;;;5075988;28;20020;-79
2023/09/24 08:22:41;;;;;;;21.52;18.45;;;615.10;2432.00;;;;;;5059059;28;20029;-79
2023/09/24 08:25:08;;;;;;;22.48;20.08;;;615.00;2432.00;;;;;;5078959;28;20372;-79
2023/09/24 08:27:33;;;;;;;24.30;20.98;;;640.10;2432.00;;;;;;5073244;28;20020;-78
2023/09/24 08:30:00;;;;;;;23.00;20.05;;;640.70;2432.00;;;;;;5074905;28;20013;-79
2023/09/24 08:32:26;;;;;;;21.95;19.55;;;640.70;2432.00;;;;;;5080946;28;20028;-78
2023/09/24 08:34:51;;;;;;;22.50;20.10;;;665.90;2432.00;;;;;;5077344;28;20035;-79
2023/09/24 08:37:17;;;;;;;22.20;19.25;;;665.90;2432.00;;;;;;5096109;28;20415;-78
2023/09/24 08:39:43;;;;;;;26.70;20.77;;;665.60;2432.00;;;;;;5088967;28;20040;-77
2023/09/24 08:42:12;;;;;;;21.08;18.85;;;640.90;2432.00;;;;;;5080376;28;20027;-75
2023/09/24 08:44:40;;;;;;;24.98;21.67;;;640.70;2432.00;;;;;;5066404;28;20036;-75
2023/09/24 08:47:06;;;;;;;24.02;18.48;;;640.60;2432.00;;;;;;5066898;28;20017;-76
2023/09/24 08:49:32;;;;;;;21.83;18.33;;;640.50;2432.00;;;;;;5066528;28;20466;-79
2023/09/24 08:52:01;;;;;;;26.13;23.38;;;640.40;2432.00;;;;;;5064072;28;20090;-78
2023/09/24 08:54:28;;;;;;;26.98;22.80;;;615.30;2432.00;;;;;;5063522;28;20477;-78
2023/09/24 08:56:53;;;;;;;29.42;20.33;;;615.20;2432.00;;;;;;5065222;28;20466;-79
2023/09/24 08:59:19;;;;;;;23.00;19.23;;;615.20;2432.00;;;;;;5081386;28;20036;-76
2023/09/24 09:01:53;;;;;;;24.05;19.88;;;615.20;2432.00;;;;;;5079274;28;20029;-76
2023/09/24 09:04:19;;;;;;;27.30;20.05;;;615.30;2432.00;;;;;;5069825;28;20025;-76
2023/09/24 09:06:44;;;;;;;23.60;20.27;;;615.30;2432.00;;;;;;5072476;28;20028;-76
2023/09/24 09:09:11;;;;;;;24.05;21.05;;;640.10;2432.00;;;;;;5072211;28;20115;-76
2023/09/24 09:11:42;;;;;;;28.35;22.45;;;640.20;2432.00;;;;;;5068389;28;20032;-76
2023/09/24 09:14:11;;;;;;;22.52;19.58;;;640.00;2432.00;;;;;;5067461;28;20033;-76
2023/09/24 09:16:57;;;;;;;24.70;21.58;;;615.20;2432.00;;;;;;5083324;28;20500;-76
2023/09/24 09:19:25;;;;;;;;;;;615.10;2432.00;;;;;;5064031;28;20386;-76
2023/09/24 09:21:52;;;;;;;29.17;22.05;;;615.10;2432.00;;;;;;5069130;28;19923;-76
2023/09/24 09:24:25;;;;;;;20.30;18.05;;;615.00;2432.00;;;;;;5072117;28;20479;-77
2023/09/24 09:26:58;;;;;;;21.30;17.85;;;615.00;2432.00;;;;;;5071777;28;20035;-76
2023/09/24 09:29:25;;;;;;;22.20;19.00;;;615.20;2432.00;;;;;;5070054;28;20060;-76
2023/09/24 09:31:51;;;;;;;21.85;19.45;;;615.10;2432.00;;;;;;5059982;28;20021;-73
2023/09/24 09:34:17;;;;;;;22.60;18.98;;;615.20;2432.00;;;;;;5075638;28;20025;-73
2023/09/24 09:36:43;;;;;;;23.42;19.42;;;615.30;2432.00;;;;;;5077078;28;20477;-74
2023/09/24 09:39:09;;;;;;;23.20;18.83;;;615.20;2432.00;;;;;;5070843;28;20469;-74
2023/09/24 09:41:35;;;;;;;22.50;19.50;;;615.20;2432.00;;;;;;5071709;28;20052;-74
2023/09/24 09:44:05;;;;;;;22.05;18.63;;;615.20;2432.00;;;;;;5067749;28;20032;-74
2023/09/24 09:46:34;;;;;;;22.35;18.27;;;615.30;2432.00;;;;;;5063698;28;20125;-74
2023/09/24 09:49:04;;;;;;;24.55;19.67;;;615.10;2432.00;;;;;;5065033;28;20065;-74
2023/09/24 09:51:43;;;;;;;25.77;21.73;;;615.20;2432.00;;;;;;5078815;28;20112;-74
2023/09/24 09:54:11;;;;;;;25.17;20.88;;;615.30;2432.00;;;;;;5062355;28;20025;-74
2023/09/24 09:56:38;;;;;;;24.98;20.83;;;640.10;2432.00;;;;;;5067752;28;20038;-73
2023/09/24 09:59:07;;;;;;;23.50;21.00;;;640.30;2432.00;;;;;;5074865;28;20020;-73
2023/09/24 10:01:33;;;;;;;26.48;20.27;;;640.40;2432.00;;;;;;5061004;28;20025;-74
2023/09/24 10:04:04;;;;;;;22.85;20.15;;;640.30;2432.00;;;;;;5066149;28;20043;-74
2023/09/24 10:06:37;;;;;;;24.38;19.75;;;640.20;2432.00;;;;;;5073966;28;20017;-74
2023/09/24 10:09:42;;;;;;;25.77;18.30;;;640.20;2432.00;;;;;;5058700;28;20123;-74
2023/09/24 10:12:08;;;;;;;24.83;20.95;;;640.30;2432.00;;;;;;5070876;28;20044;-73
2023/09/24 10:14:35;;;;;;;22.80;19.80;;;640.20;2432.00;;;;;;5069235;28;20036;-76
2023/09/24 10:17:16;;;;;;;24.42;20.83;;;640.10;2432.00;;;;;;5072120;28;20016;-73
2023/09/24 10:19:56;;;;;;;26.73;20.88;;;640.10;2432.00;;;;;;5074790;28;20033;-74
2023/09/24 10:22:34;;;;;;;24.80;21.42;;;640.00;2432.00;;;;;;5075171;28;20154;-77
2023/09/24 10:25:21;;;;;;;29.10;24.02;;;640.00;2432.00;;;;;;5079589;28;20473;-75
2023/09/24 10:28:05;;;;;;;29.77;24.20;;;640.00;2432.00;;;;;;5070412;28;20478;-76
2023/09/24 10:31:02;;;;;;;30.85;24.63;;;640.00;2432.00;;;;;;5083870;28;20029;-75
2023/09/24 10:34:01;;;;;;;33.53;26.85;;;615.30;2432.00;;;;;;5056892;28;20462;-74
2023/09/24 10:36:33;;;;;;;31.52;27.42;;;615.20;2432.00;;;;;;5068125;28;20024;-73
2023/09/24 10:39:13;;;;;;;29.85;23.52;;;615.20;2432.00;;;;;;5073510;28;20040;-75
2023/09/24 10:42:14;;;;;;;30.33;23.52;;;615.20;2432.00;;;;;;5070425;28;20029;-73
2023/09/24 10:44:42;;;;;;;32.17;24.05;;;615.30;2432.00;;;;;;5050050;28;20098;-76
2023/09/24 10:47:28;;;;;;;32.55;25.00;;;615.30;2432.00;;;;;;5050402;28;20037;-76
2023/09/24 10:50:03;;;;;;;30.77;25.17;;;615.20;2432.00;;;;;;5049759;28;20175;-75
2023/09/24 10:52:45;;;;;;;33.90;26.33;;;615.30;2432.00;;;;;;5050033;28;20036;-76
2023/09/24 10:55:11;;;;;;;34.30;27.58;;;615.20;2432.00;;;;;;5050246;28;20037;-76
2023/09/24 10:57:37;;;;;;;31.58;26.33;;;615.20;2432.00;;;;;;5050334;28;20029;-77
2023/09/24 11:00:04;;;;;;;32.95;27.77;;;615.10;2432.00;;;;;;5049988;28;20037;-75
2023/09/24 11:02:30;;;;;;;36.50;27.85;;;615.00;2432.00;;;;;;5050304;28;20029;-74
2023/09/24 11:05:02;;;;;;;36.33;28.80;;;615.00;2432.00;;;;;;5033302;28;20036;-74
2023/09/24 11:07:27;;;;;;;29.95;25.15;;;615.00;2432.00;;;;;;5044970;28;20037;-75
2023/09/24 11:09:53;;;;;;;34.55;27.77;;;615.00;2432.00;;;;;;5049938;28;20032;-74
2023/09/24 11:12:19;;;;;;;31.42;26.38;;;614.90;2432.00;;;;;;5050200;28;20525;-75
2023/09/24 11:14:54;;;;;;;35.55;27.38;;;615.00;2432.00;;;;;;5049859;28;20037;-75
2023/09/24 11:17:20;;;;;;;33.72;26.77;;;614.80;2432.00;;;;;;5050013;28;20025;-75
2023/09/24 11:19:48;;;;;;;36.97;29.75;;;614.80;2432.00;;;;;;5055275;28;20087;-76
2023/09/24 11:22:16;;;;;;;17.45;12.82;;;614.80;2432.00;;;;;;5069926;28;20066;-75
2023/09/24 11:24:42;;;;;;;8.35;6.13;;;614.60;2432.00;;;;;;5074608;28;20021;-75
2023/09/24 11:27:08;;;;;;;7.40;4.85;;;614.50;2432.00;;;;;;5066885;28;20373;-75
2023/09/24 11:29:35;;;;;;;7.72;5.88;;;589.70;2432.00;;;;;;5071869;28;20484;-76
2023/09/24 11:32:01;;;;;;;8.88;6.50;;;589.60;2432.00;;;;;;5070568;28;20017;-75
2023/09/24 11:34:28;;;;;;;7.60;6.20;;;589.60;2432.00;;;;;;5058426;28;20112;-75
2023/09/24 11:36:57;;;;;;;10.63;7.13;;;589.60;2432.00;;;;;;5064849;28;20508;-75
2023/09/24 11:39:23;;;;;;;9.13;6.65;;;589.50;2432.00;;;;;;5057608;28;20049;-75
2023/09/24 11:41:49;;;;;;;10.32;7.63;;;589.40;2432.00;;;;;;5067951;28;20077;-75
2023/09/24 11:44:16;;;;;;;8.43;7.57;;;589.40;2432.00;;;;;;5067766;28;20029;-74
2023/09/24 11:46:46;;;;;;;9.05;8.10;;;589.30;2432.00;;;;;;5067703;28;20070;-76
2023/09/24 11:49:12;;;;;;;9.68;8.77;;;589.10;2432.00;;;;;;5063970;28;20392;-75
2023/09/24 11:51:37;;;;;;;11.70;9.48;;;589.00;2432.00;;;;;;5076510;28;20035;-76
2023/09/24 11:54:04;;;;;;;10.35;9.35;;;589.00;2432.00;;;;;;5061163;28;20037;-74
2023/09/24 11:56:31;;;;;;;11.15;9.02;;;589.00;2432.00;;;;;;5065282;28;20035;-75
2023/09/24 11:58:59;;;;;;;10.63;9.55;;;589.00;2432.00;;;;;;5074374;28;20103;-75
2023/09/24 12:01:25;;;;;;;11.50;10.32;;;588.90;2432.00;;;;;;5052931;28;20045;-74
2023/09/24 12:03:53;;;;;;;11.35;10.25;;;589.00;2432.00;;;;;;5085227;28;20089;-74
2023/09/24 12:06:22;;;;;;;16.90;10.60;;;589.00;2432.00;;;;;;5068992;28;20021;-75
2023/09/24 12:08:47;;;;;;;12.77;11.40;;;588.80;2432.00;;;;;;5074970;28;20079;-74
2023/09/24 12:11:13;;;;;;;12.95;11.70;;;588.80;2432.00;;;;;;5071028;28;20489;-74
2023/09/24 12:13:39;;;;;;;14.68;13.25;;;588.80;2432.00;;;;;;5072696;28;20032;-75
2023/09/24 12:16:04;;;;;;;14.00;12.40;;;564.10;2432.00;;;;;;5068106;28;20021;-74